createdAt,value
2018-07-01T00:00:46.865Z,50.50
2018-07-01T00:02:48.840Z,50.50
2018-07-01T00:04:50.800Z,50.50
2018-07-01T00:06:52.765Z,50.60
2018-07-01T00:08:54.748Z,50.70
2018-07-01T00:10:56.732Z,50.70
2018-07-01T00:12:58.691Z,50.70
2018-07-01T00:15:00.662Z,50.80
2018-07-01T00:17:02.652Z,50.80
2018-07-01T00:19:04.958Z,50.90
2018-07-01T00:21:06.948Z,50.90
2018-07-01T00:23:08.912Z,51.00
2018-07-01T00:25:10.890Z,51.10
2018-07-01T00:27:12.877Z,51.10
2018-07-01T00:29:14.854Z,51.10
2018-07-01T00:31:16.828Z,51.10
2018-07-01T00:33:18.836Z,51.10
2018-07-01T00:35:20.802Z,51.20
2018-07-01T00:37:22.780Z,51.20
2018-07-01T00:39:24.780Z,51.30
2018-07-01T00:41:26.757Z,51.20
2018-07-01T00:43:28.724Z,51.20
2018-07-01T00:45:30.773Z,51.30
2018-07-01T00:47:32.755Z,51.20
2018-07-01T00:49:34.722Z,51.30
2018-07-01T00:51:36.695Z,51.30
2018-07-01T00:53:38.688Z,52.00
2018-07-01T00:55:40.689Z,51.30
2018-07-01T00:57:42.645Z,51.30
2018-07-01T00:59:44.623Z,51.30
2018-07-01T01:01:46.589Z,51.30
2018-07-01T01:03:48.568Z,51.40
2018-07-01T01:05:50.807Z,51.40
2018-07-01T01:07:52.785Z,51.40
2018-07-01T01:09:54.767Z,51.40
2018-07-01T01:11:56.743Z,51.40
2018-07-01T01:13:58.753Z,51.40
2018-07-01T01:16:00.713Z,51.40
2018-07-01T01:18:02.693Z,51.40
2018-07-01T01:20:04.676Z,51.40
2018-07-01T01:22:06.665Z,51.50
2018-07-01T01:24:08.987Z,51.60
2018-07-01T01:26:10.949Z,51.60
2018-07-01T01:28:12.926Z,51.60
2018-07-01T01:30:14.917Z,51.60
2018-07-01T01:32:16.885Z,51.70
2018-07-01T01:34:18.861Z,51.70
2018-07-01T01:36:20.845Z,51.70
2018-07-01T01:38:22.813Z,51.80
2018-07-01T01:40:24.783Z,51.80
2018-07-01T01:42:26.773Z,51.80
2018-07-01T01:44:28.758Z,51.80
2018-07-01T01:46:30.744Z,51.80
2018-07-01T01:48:32.716Z,51.80
2018-07-01T01:50:34.704Z,51.80
2018-07-01T01:52:36.681Z,51.80
2018-07-01T01:54:38.651Z,51.80
2018-07-01T01:56:40.649Z,51.80
2018-07-01T01:58:42.622Z,51.80
2018-07-01T02:00:44.577Z,51.80
2018-07-01T02:02:46.556Z,51.90
2018-07-01T02:06:50.787Z,51.60
2018-07-01T02:08:52.831Z,51.60
2018-07-01T02:10:54.770Z,51.50
2018-07-01T02:12:56.748Z,51.40
2018-07-01T02:14:58.710Z,51.20
2018-07-01T02:17:00.737Z,51.60
2018-07-01T02:19:02.684Z,51.40
2018-07-01T02:21:04.653Z,51.60
2018-07-01T02:23:06.713Z,51.70
2018-07-01T02:25:08.688Z,51.70
2018-07-01T02:27:10.660Z,51.80
2018-07-01T02:29:12.640Z,51.90
2018-07-01T02:31:14.603Z,51.90
2018-07-01T02:33:16.600Z,52.00
2018-07-01T02:35:18.630Z,52.00
2018-07-01T02:37:20.561Z,52.00
2018-07-01T02:39:22.543Z,52.00
2018-07-01T02:41:24.536Z,52.00
2018-07-01T02:43:26.543Z,52.10
2018-07-01T02:45:28.536Z,52.00
2018-07-01T02:47:30.500Z,52.00
2018-07-01T02:49:32.485Z,52.10
2018-07-01T02:51:34.450Z,52.10
2018-07-01T02:53:36.500Z,52.10
2018-07-01T02:55:38.444Z,52.10
2018-07-01T02:57:40.424Z,52.20
2018-07-01T02:59:42.408Z,52.10
2018-07-01T03:01:44.374Z,52.20
2018-07-01T03:03:46.355Z,52.20
2018-07-01T03:05:48.335Z,52.20
2018-07-01T03:07:50.298Z,52.20
2018-07-01T03:09:52.306Z,52.20
2018-07-01T03:11:54.276Z,52.20
2018-07-01T03:13:56.244Z,52.20
2018-07-01T03:15:58.226Z,52.20
2018-07-01T03:18:00.213Z,52.20
2018-07-01T03:20:02.209Z,52.30
2018-07-01T03:22:04.186Z,52.30
2018-07-01T03:24:06.232Z,52.30
2018-07-01T03:26:08.200Z,52.20
2018-07-01T03:28:10.162Z,52.10
2018-07-01T03:30:12.126Z,52.10
2018-07-01T03:32:14.099Z,52.00
2018-07-01T03:34:16.076Z,51.90
2018-07-01T03:36:18.072Z,51.90
2018-07-01T03:38:20.028Z,51.80
2018-07-01T03:40:22.005Z,51.90
2018-07-01T03:42:23.980Z,51.80
2018-07-01T03:44:25.958Z,51.80
2018-07-01T03:46:27.933Z,51.80
2018-07-01T03:48:29.895Z,51.90
2018-07-01T03:50:31.863Z,52.60
2018-07-01T03:52:33.835Z,51.80
2018-07-01T03:54:35.787Z,51.90
2018-07-01T03:56:37.779Z,52.20
2018-07-01T03:58:39.737Z,51.80
2018-07-01T04:00:41.714Z,51.90
2018-07-01T04:02:43.704Z,51.80
2018-07-01T04:04:45.680Z,51.90
2018-07-01T04:06:47.644Z,51.90
2018-07-01T04:08:49.633Z,51.80
2018-07-01T04:10:51.607Z,51.90
2018-07-01T04:12:53.599Z,51.90
2018-07-01T04:14:55.583Z,51.90
2018-07-01T04:16:57.547Z,51.90
2018-07-01T04:18:59.527Z,51.90
2018-07-01T04:21:01.497Z,52.00
2018-07-01T04:23:03.471Z,52.20
2018-07-01T04:25:05.443Z,52.30
2018-07-01T04:27:07.395Z,52.30
2018-07-01T04:29:09.365Z,52.20
2018-07-01T04:31:11.436Z,52.00
2018-07-01T04:33:13.335Z,51.70
2018-07-01T04:35:15.319Z,51.60
2018-07-01T04:37:17.301Z,51.40
2018-07-01T04:39:19.274Z,51.20
2018-07-01T04:41:21.264Z,51.30
2018-07-01T04:43:23.233Z,51.20
2018-07-01T04:45:25.207Z,51.20
2018-07-01T04:47:27.161Z,51.50
2018-07-01T04:49:29.159Z,51.70
2018-07-01T04:51:31.222Z,51.90
2018-07-01T04:53:33.184Z,52.10
2018-07-01T04:55:35.152Z,52.20
2018-07-01T04:57:37.126Z,52.40
2018-07-01T04:59:39.103Z,52.40
2018-07-01T05:01:41.073Z,52.30
2018-07-01T05:03:43.056Z,52.40
2018-07-01T05:05:45.049Z,52.10
2018-07-01T05:07:47.019Z,52.10
2018-07-01T05:09:49.012Z,52.10
2018-07-01T05:11:50.974Z,52.10
2018-07-01T05:13:52.956Z,52.10
2018-07-01T05:15:54.931Z,52.20
2018-07-01T05:17:56.899Z,52.20
2018-07-01T05:19:58.882Z,52.20
2018-07-01T05:22:00.859Z,52.20
2018-07-01T05:24:02.846Z,52.10
2018-07-01T05:26:04.805Z,52.30
2018-07-01T05:28:06.765Z,52.30
2018-07-01T05:32:10.977Z,52.30
2018-07-01T05:34:12.959Z,52.40
2018-07-01T05:36:14.936Z,52.50
2018-07-01T05:38:16.917Z,52.50
2018-07-01T05:40:18.877Z,52.50
2018-07-01T05:42:20.849Z,52.50
2018-07-01T05:44:22.837Z,52.60
2018-07-01T05:46:24.823Z,52.50
2018-07-01T05:48:26.771Z,52.70
2018-07-01T05:50:28.745Z,52.60
2018-07-01T05:52:30.713Z,52.70
2018-07-01T05:54:32.703Z,52.60
2018-07-01T05:56:34.701Z,52.70
2018-07-01T05:58:36.673Z,52.70
2018-07-01T06:00:38.653Z,53.40
2018-07-01T06:02:40.631Z,52.80
2018-07-01T06:04:42.597Z,52.70
2018-07-01T06:06:44.574Z,52.70
2018-07-01T06:08:46.608Z,52.80
2018-07-01T06:10:48.517Z,52.80
2018-07-01T06:12:50.498Z,52.80
2018-07-01T06:14:52.506Z,52.90
2018-07-01T06:16:54.534Z,53.00
2018-07-01T06:18:56.473Z,52.90
2018-07-01T06:20:58.435Z,53.00
2018-07-01T06:23:00.433Z,53.00
2018-07-01T06:25:02.397Z,53.10
2018-07-01T06:27:04.365Z,53.00
2018-07-01T06:29:06.335Z,53.00
2018-07-01T06:31:08.314Z,53.10
2018-07-01T06:33:10.368Z,53.10
2018-07-01T06:35:12.335Z,53.10
2018-07-01T06:37:14.334Z,53.20
2018-07-01T06:39:16.300Z,53.20
2018-07-01T06:41:18.301Z,53.20
2018-07-01T06:43:20.255Z,53.40
2018-07-01T06:45:22.231Z,53.20
2018-07-01T06:47:24.253Z,53.20
2018-07-01T06:49:26.298Z,53.10
2018-07-01T06:51:28.233Z,53.20
2018-07-01T06:53:30.221Z,53.20
2018-07-01T06:55:32.167Z,46.70
2018-07-01T06:57:34.162Z,45.20
2018-07-01T06:59:36.139Z,44.50
2018-07-01T07:01:38.142Z,44.70
2018-07-01T07:03:40.102Z,44.80
2018-07-01T07:07:44.310Z,45.80
2018-07-01T07:09:46.271Z,44.00
2018-07-01T07:11:48.238Z,44.80
2018-07-01T07:13:50.218Z,44.60
2018-07-01T07:15:52.198Z,45.20
2018-07-01T07:17:54.197Z,44.80
2018-07-01T07:19:56.179Z,44.10
2018-07-01T07:21:58.182Z,42.40
2018-07-01T07:24:00.146Z,43.20
2018-07-01T07:26:02.119Z,44.40
2018-07-01T07:28:04.108Z,43.10
2018-07-01T07:30:06.049Z,43.20
2018-07-01T07:32:08.047Z,42.90
2018-07-01T07:34:10.030Z,43.60
2018-07-01T07:36:11.975Z,42.20
2018-07-01T07:38:13.970Z,42.90
2018-07-01T07:40:15.928Z,41.70
2018-07-01T07:42:17.894Z,42.10
2018-07-01T07:44:19.881Z,41.80
2018-07-01T07:46:21.856Z,42.50
2018-07-01T07:48:23.846Z,42.50
2018-07-01T07:50:25.831Z,41.90
2018-07-01T07:52:27.802Z,40.70
2018-07-01T07:54:29.773Z,42.80
2018-07-01T07:56:31.786Z,43.00
2018-07-01T07:58:33.756Z,41.90
2018-07-01T08:00:35.732Z,41.80
2018-07-01T08:02:37.704Z,41.60
2018-07-01T08:04:39.678Z,41.20
2018-07-01T08:06:41.656Z,41.30
2018-07-01T08:08:43.628Z,42.00
2018-07-01T08:10:45.594Z,42.50
2018-07-01T08:12:47.651Z,42.80
2018-07-01T08:14:49.931Z,41.70
2018-07-01T08:16:51.934Z,43.60
2018-07-01T08:18:53.902Z,43.70
2018-07-01T08:20:55.877Z,43.20
2018-07-01T08:22:57.845Z,42.70
2018-07-01T08:24:59.810Z,41.10
2018-07-01T08:27:01.768Z,42.00
2018-07-01T08:29:03.763Z,41.30
2018-07-01T08:31:05.908Z,42.00
2018-07-01T08:33:07.883Z,41.80
2018-07-01T08:35:09.836Z,40.40
2018-07-01T08:37:11.816Z,41.60
2018-07-01T08:41:16.033Z,42.00
2018-07-01T08:43:18.003Z,41.90
2018-07-01T08:45:19.973Z,41.70
2018-07-01T08:47:21.919Z,43.30
2018-07-01T08:49:23.901Z,40.40
2018-07-01T08:51:25.877Z,41.80
2018-07-01T08:53:27.825Z,40.90
2018-07-01T08:55:29.801Z,41.20
2018-07-01T08:57:31.772Z,40.90
2018-07-01T08:59:33.725Z,42.60
2018-07-01T09:01:35.709Z,41.50
2018-07-01T09:03:37.681Z,40.00
2018-07-01T09:05:39.661Z,41.50
2018-07-01T09:07:41.645Z,42.80
2018-07-01T09:09:43.609Z,41.80
2018-07-01T09:11:45.584Z,43.20
2018-07-01T09:13:47.579Z,43.00
2018-07-01T09:15:49.545Z,41.00
2018-07-01T09:17:51.507Z,42.50
2018-07-01T09:19:53.477Z,43.20
2018-07-01T09:21:55.441Z,42.60
2018-07-01T09:23:57.418Z,43.30
2018-07-01T09:25:59.404Z,43.20
2018-07-01T09:28:01.389Z,43.50
2018-07-01T09:30:03.369Z,42.10
2018-07-01T09:32:05.321Z,40.00
2018-07-01T09:34:07.305Z,43.10
2018-07-01T09:36:09.272Z,43.20
2018-07-01T09:38:11.228Z,41.80
2018-07-01T09:40:13.201Z,43.10
2018-07-01T09:42:15.176Z,41.80
2018-07-01T09:44:17.182Z,43.40
2018-07-01T09:46:19.140Z,42.20
2018-07-01T09:48:21.123Z,42.10
2018-07-01T09:50:23.115Z,42.00
2018-07-01T09:52:25.476Z,43.20
2018-07-01T09:54:27.448Z,43.00
2018-07-01T09:56:29.394Z,43.40
2018-07-01T10:00:33.647Z,43.40
2018-07-01T10:02:35.631Z,43.70
2018-07-01T10:04:37.605Z,43.00
2018-07-01T10:06:39.593Z,43.20
2018-07-01T10:08:41.568Z,42.60
2018-07-01T10:10:43.536Z,40.80
2018-07-01T10:12:45.504Z,43.20
2018-07-01T10:14:47.498Z,42.40
2018-07-01T10:16:49.465Z,42.30
2018-07-01T10:18:51.466Z,42.10
2018-07-01T10:20:53.397Z,42.60
2018-07-01T10:22:55.341Z,42.50
2018-07-01T10:24:57.323Z,42.80
2018-07-01T10:26:59.291Z,42.80
2018-07-01T10:29:01.256Z,43.10
2018-07-01T10:31:03.217Z,42.80
2018-07-01T10:33:05.190Z,42.80
2018-07-01T10:35:07.143Z,41.20
2018-07-01T10:37:09.120Z,41.90
2018-07-01T10:41:13.334Z,41.20
2018-07-01T10:43:15.287Z,41.60
2018-07-01T10:45:17.253Z,41.70
2018-07-01T10:47:19.235Z,41.80
2018-07-01T10:49:21.216Z,41.80
2018-07-01T10:51:23.219Z,40.50
2018-07-01T10:53:25.411Z,41.40
2018-07-01T10:55:27.376Z,41.50
2018-07-01T10:57:29.380Z,41.30
2018-07-01T10:59:31.327Z,41.70
2018-07-01T11:01:33.281Z,41.00
2018-07-01T11:03:35.240Z,41.50
2018-07-01T11:05:37.216Z,40.80
2018-07-01T11:07:39.182Z,41.40
2018-07-01T11:09:41.148Z,41.50
2018-07-01T11:11:43.185Z,41.40
2018-07-01T11:13:46.053Z,41.40
2018-07-01T11:15:48.025Z,41.00
2018-07-01T11:17:49.987Z,40.40
2018-07-01T11:19:51.961Z,41.20
2018-07-01T11:21:53.913Z,40.00
2018-07-01T11:23:55.881Z,40.50
2018-07-01T11:25:57.851Z,40.10
2018-07-01T11:27:59.822Z,40.20
2018-07-01T11:30:01.821Z,40.30
2018-07-01T11:32:03.782Z,40.40
2018-07-01T11:34:05.759Z,39.40
2018-07-01T11:36:07.736Z,40.80
2018-07-01T11:38:09.766Z,40.80
2018-07-01T11:40:11.692Z,40.80
2018-07-01T11:42:13.652Z,40.90
2018-07-01T11:44:15.630Z,41.20
2018-07-01T11:46:17.610Z,40.40
2018-07-01T11:48:19.573Z,40.40
2018-07-01T11:50:21.534Z,41.20
2018-07-01T11:52:23.570Z,40.60
2018-07-01T11:54:25.496Z,39.60
2018-07-01T11:56:27.443Z,39.80
2018-07-01T11:58:29.414Z,40.80
2018-07-01T12:00:31.382Z,39.00
2018-07-01T12:02:33.361Z,39.00
2018-07-01T12:06:37.567Z,40.80
2018-07-01T12:08:39.650Z,39.90
2018-07-01T12:10:41.590Z,38.70
2018-07-01T12:12:43.550Z,39.20
2018-07-01T12:14:45.517Z,40.10
2018-07-01T12:16:47.501Z,39.60
2018-07-01T12:18:49.480Z,39.60
2018-07-01T12:20:51.440Z,40.90
2018-07-01T12:22:53.632Z,39.20
2018-07-01T12:24:55.606Z,40.90
2018-07-01T12:26:57.587Z,39.30
2018-07-01T12:28:59.542Z,39.70
2018-07-01T12:31:01.476Z,39.90
2018-07-01T12:33:03.456Z,39.20
2018-07-01T12:35:05.417Z,38.90
2018-07-01T12:37:07.406Z,40.00
2018-07-01T12:39:09.389Z,40.10
2018-07-01T12:41:11.364Z,38.40
2018-07-01T12:43:13.326Z,38.80
2018-07-01T12:45:15.412Z,38.60
2018-07-01T12:47:17.340Z,38.40
2018-07-01T12:49:19.337Z,38.70
2018-07-01T12:51:21.296Z,39.20
2018-07-01T12:53:23.277Z,39.30
2018-07-01T12:55:25.259Z,39.40
2018-07-01T12:57:27.204Z,39.40
2018-07-01T12:59:29.190Z,39.60
2018-07-01T13:01:31.144Z,39.00
2018-07-01T13:03:33.074Z,39.20
2018-07-01T13:05:35.038Z,38.40
2018-07-01T13:07:37.029Z,38.20
2018-07-01T13:09:38.990Z,39.30
2018-07-01T13:11:40.984Z,38.50
2018-07-01T13:13:42.940Z,38.70
2018-07-01T13:15:44.907Z,38.50
2018-07-01T13:17:46.860Z,38.90
2018-07-01T13:19:48.836Z,38.80
2018-07-01T13:21:50.850Z,38.90
2018-07-01T13:23:52.809Z,39.00
2018-07-01T13:25:54.790Z,38.90
2018-07-01T13:27:56.741Z,38.80
2018-07-01T13:29:58.714Z,38.50
2018-07-01T13:32:00.699Z,38.10
2018-07-01T13:34:02.673Z,38.80
2018-07-01T13:36:04.631Z,38.70
2018-07-01T13:38:06.589Z,38.50
2018-07-01T13:40:08.547Z,38.20
2018-07-01T13:42:10.536Z,39.00
2018-07-01T13:44:12.506Z,38.10
2018-07-01T13:46:14.500Z,38.60
2018-07-01T13:50:18.729Z,38.10
2018-07-01T13:52:20.688Z,38.30
2018-07-01T13:54:22.660Z,37.90
2018-07-01T13:56:24.646Z,38.50
2018-07-01T13:58:26.607Z,36.50
2018-07-01T14:00:28.630Z,36.90
2018-07-01T14:02:30.896Z,36.90
2018-07-01T14:04:32.846Z,37.40
2018-07-01T14:06:34.823Z,38.00
2018-07-01T14:08:36.799Z,38.50
2018-07-01T14:10:38.718Z,37.70
2018-07-01T14:12:40.700Z,36.80
2018-07-01T14:14:42.650Z,36.70
2018-07-01T14:16:44.604Z,37.20
2018-07-01T14:18:46.589Z,38.30
2018-07-01T14:20:48.535Z,38.60
2018-07-01T14:22:50.500Z,38.20
2018-07-01T14:24:52.463Z,37.80
2018-07-01T14:26:54.502Z,36.60
2018-07-01T14:28:56.424Z,36.40
2018-07-01T14:30:58.376Z,37.20
2018-07-01T14:33:00.340Z,36.70
2018-07-01T14:35:02.318Z,37.30
2018-07-01T14:37:04.275Z,36.80
2018-07-01T14:39:06.235Z,37.80
2018-07-01T14:41:08.188Z,37.90
2018-07-01T14:43:10.155Z,38.00
2018-07-01T14:45:12.108Z,38.60
2018-07-01T14:47:14.080Z,37.60
2018-07-01T14:49:16.091Z,37.60
2018-07-01T14:51:18.027Z,37.70
2018-07-01T14:53:19.986Z,37.60
2018-07-01T14:55:21.936Z,38.60
2018-07-01T14:57:23.898Z,37.70
2018-07-01T14:59:25.885Z,38.30
2018-07-01T15:01:27.856Z,38.30
2018-07-01T15:03:30.148Z,36.50
2018-07-01T15:05:32.130Z,38.40
2018-07-01T15:07:34.099Z,36.90
2018-07-01T15:09:36.070Z,37.20
2018-07-01T15:11:38.029Z,38.00
2018-07-01T15:13:39.976Z,36.40
2018-07-01T15:15:41.954Z,38.10
2018-07-01T15:17:43.922Z,38.70
2018-07-01T15:19:45.891Z,38.20
2018-07-01T15:21:47.842Z,37.70
2018-07-01T15:23:49.822Z,37.90
2018-07-01T15:25:51.796Z,36.40
2018-07-01T15:27:53.773Z,37.50
2018-07-01T15:29:55.755Z,38.80
2018-07-01T15:31:57.720Z,37.60
2018-07-01T15:33:59.675Z,37.80
2018-07-01T15:36:01.656Z,37.90
2018-07-01T15:38:03.622Z,37.90
2018-07-01T15:40:05.586Z,37.50
2018-07-01T15:42:07.571Z,38.50
2018-07-01T15:44:09.563Z,37.40
2018-07-01T15:46:11.507Z,38.00
2018-07-01T15:48:13.483Z,39.30
2018-07-01T15:50:15.482Z,38.10
2018-07-01T15:52:17.451Z,39.70
2018-07-01T15:54:19.430Z,37.60
2018-07-01T15:56:21.440Z,37.80
2018-07-01T15:58:23.421Z,37.00
2018-07-01T16:00:25.374Z,37.40
2018-07-01T16:02:27.440Z,38.90
2018-07-01T16:04:29.362Z,38.30
2018-07-01T16:06:31.342Z,38.00
2018-07-01T16:08:33.316Z,36.80
2018-07-01T16:10:35.296Z,36.90
2018-07-01T16:12:37.262Z,34.70
2018-07-01T16:14:39.252Z,37.00
2018-07-01T16:18:43.456Z,36.60
2018-07-01T16:20:45.415Z,36.30
2018-07-01T16:22:47.388Z,37.60
2018-07-01T16:24:49.366Z,37.10
2018-07-01T16:26:51.336Z,37.50
2018-07-01T16:28:53.293Z,37.40
2018-07-01T16:30:55.280Z,38.10
2018-07-01T16:32:57.253Z,36.90
2018-07-01T16:34:59.207Z,37.30
2018-07-01T16:37:01.186Z,36.00
2018-07-01T16:39:03.153Z,35.90
2018-07-01T16:41:05.147Z,37.00
2018-07-01T16:43:07.110Z,36.50
2018-07-01T16:47:11.306Z,36.80
2018-07-01T16:49:13.282Z,37.10
2018-07-01T16:51:15.256Z,35.90
2018-07-01T16:53:17.239Z,37.60
2018-07-01T16:55:19.240Z,38.40
2018-07-01T16:57:21.200Z,35.20
2018-07-01T16:59:23.172Z,38.10
2018-07-01T17:01:25.117Z,35.10
2018-07-01T17:03:27.077Z,37.40
2018-07-01T17:05:29.159Z,35.40
2018-07-01T17:07:30.982Z,36.10
2018-07-01T17:09:32.957Z,37.40
2018-07-01T17:11:34.915Z,36.20
2018-07-01T17:13:36.932Z,36.70
2018-07-01T17:15:39.232Z,35.70
2018-07-01T17:17:41.205Z,37.10
2018-07-01T17:19:43.192Z,38.20
2018-07-01T17:21:45.127Z,36.10
2018-07-01T17:23:47.084Z,37.40
2018-07-01T17:25:49.069Z,36.90
2018-07-01T17:27:51.048Z,36.20
2018-07-01T17:29:53.117Z,36.50
2018-07-01T17:31:55.046Z,35.90
2018-07-01T17:33:57.030Z,37.00
2018-07-01T17:38:01.252Z,34.80
2018-07-01T17:40:03.277Z,35.80
2018-07-01T17:42:05.229Z,36.20
2018-07-01T17:44:07.203Z,36.10
2018-07-01T17:46:09.195Z,35.40
2018-07-01T17:48:11.143Z,36.40
2018-07-01T17:50:13.108Z,36.70
2018-07-01T17:52:15.078Z,36.00
2018-07-01T17:54:17.062Z,36.50
2018-07-01T17:56:19.025Z,36.70
2018-07-01T17:58:20.987Z,37.00
2018-07-01T18:00:22.956Z,36.80
2018-07-01T18:02:24.918Z,37.00
2018-07-01T18:04:26.886Z,36.50
2018-07-01T18:06:28.862Z,36.60
2018-07-01T18:08:30.828Z,37.40
2018-07-01T18:10:32.819Z,36.50
2018-07-01T18:12:34.780Z,36.30
2018-07-01T18:14:36.750Z,36.40
2018-07-01T18:16:38.734Z,37.00
2018-07-01T18:20:42.931Z,37.20
2018-07-01T18:23:18.230Z,36.90
2018-07-01T18:24:58.062Z,37.10
2018-07-01T18:26:48.858Z,37.70
2018-07-01T18:29:02.567Z,37.00
2018-07-01T18:30:52.814Z,36.30
2018-07-01T18:32:54.763Z,36.50
2018-07-01T18:34:56.744Z,36.80
2018-07-01T18:36:59.013Z,38.00
2018-07-01T18:39:01.023Z,37.00
2018-07-01T18:41:02.932Z,36.70
2018-07-01T18:43:04.862Z,36.40
2018-07-01T18:45:06.852Z,36.50
2018-07-01T18:47:08.824Z,36.60
2018-07-01T18:49:10.796Z,36.10
2018-07-01T18:53:14.769Z,35.30
2018-07-01T18:55:16.738Z,35.70
2018-07-01T18:57:18.708Z,35.40
2018-07-01T18:59:20.776Z,35.60
2018-07-01T19:03:25.041Z,35.90
2018-07-01T19:05:27.036Z,36.30
2018-07-01T19:07:28.994Z,36.20
2018-07-01T19:09:30.958Z,35.90
2018-07-01T19:11:32.933Z,36.30
2018-07-01T19:13:35.415Z,36.50
2018-07-01T19:15:37.386Z,36.40
2018-07-01T19:17:39.339Z,36.50
2018-07-01T19:19:41.312Z,37.00
2018-07-01T19:21:43.298Z,36.70
2018-07-01T19:23:45.269Z,37.30
2018-07-01T19:25:47.270Z,37.40
2018-07-01T19:27:49.237Z,37.90
2018-07-01T19:29:51.287Z,38.00
2018-07-01T19:31:53.265Z,38.00
2018-07-01T19:33:55.278Z,38.20
2018-07-01T19:35:57.218Z,38.90
2018-07-01T19:37:59.174Z,38.90
2018-07-01T19:40:01.142Z,39.20
2018-07-01T19:42:03.100Z,39.50
2018-07-01T19:44:05.072Z,39.50
2018-07-01T19:46:07.048Z,40.10
2018-07-01T19:48:09.006Z,40.10
2018-07-01T19:50:11.054Z,40.50
2018-07-01T19:54:26.226Z,40.30
2018-07-01T19:56:28.160Z,40.70
2018-07-01T19:58:30.116Z,40.30
2018-07-01T20:00:32.135Z,40.80
2018-07-01T20:02:34.093Z,41.40
2018-07-01T20:04:36.056Z,40.90
2018-07-01T20:06:38.412Z,41.40
2018-07-01T20:08:40.494Z,41.20
2018-07-01T20:10:42.488Z,41.30
2018-07-01T20:12:44.470Z,41.40
2018-07-01T20:14:46.424Z,41.50
2018-07-01T20:16:48.407Z,42.00
2018-07-01T20:18:50.364Z,42.40
2018-07-01T20:20:53.208Z,42.30
2018-07-01T20:22:55.220Z,42.40
2018-07-01T20:24:57.191Z,42.50
2018-07-01T20:26:59.158Z,42.60
2018-07-01T20:29:01.813Z,42.20
2018-07-01T20:31:03.792Z,43.00
2018-07-01T20:33:05.798Z,43.40
2018-07-01T20:35:07.769Z,43.60
2018-07-01T20:37:09.752Z,43.50
2018-07-01T20:39:11.745Z,43.40
2018-07-01T20:41:13.740Z,43.50
2018-07-01T20:43:15.697Z,43.70
2018-07-01T20:47:19.933Z,44.00
2018-07-01T20:49:21.917Z,43.90
2018-07-01T20:51:23.917Z,44.00
2018-07-01T20:53:25.886Z,44.00
2018-07-01T20:55:27.863Z,44.20
2018-07-01T20:57:29.855Z,44.10
2018-07-01T20:59:31.825Z,44.00
2018-07-01T21:03:36.065Z,43.90
2018-07-01T21:05:38.135Z,43.90
2018-07-01T21:07:40.079Z,43.80
2018-07-01T21:09:42.052Z,44.10
2018-07-01T21:11:44.068Z,44.00
2018-07-01T21:13:46.025Z,43.70
2018-07-01T21:15:48.013Z,45.50
2018-07-01T21:17:50.053Z,44.30
2018-07-01T21:19:51.986Z,45.10
2018-07-01T21:21:53.929Z,45.30
2018-07-01T21:23:55.923Z,45.50
2018-07-01T21:25:57.901Z,45.50
2018-07-01T21:27:59.872Z,45.60
2018-07-01T21:30:01.853Z,45.50
2018-07-01T21:32:03.836Z,45.50
2018-07-01T21:34:05.809Z,45.50
2018-07-01T21:36:07.806Z,45.50
2018-07-01T21:38:09.762Z,45.50
2018-07-01T21:40:11.750Z,45.50
2018-07-01T21:42:13.718Z,45.80
2018-07-01T21:44:15.704Z,43.60
2018-07-01T21:46:17.681Z,45.70
2018-07-01T21:48:19.650Z,45.90
2018-07-01T21:50:21.641Z,45.80
2018-07-01T21:52:23.609Z,46.00
2018-07-01T21:54:25.937Z,45.70
2018-07-01T21:58:30.154Z,45.80
2018-07-01T22:00:32.197Z,45.70
2018-07-01T22:02:34.126Z,45.70
2018-07-01T22:04:36.095Z,45.70
2018-07-01T22:06:38.089Z,45.80
2018-07-01T22:08:40.070Z,45.80
2018-07-01T22:10:42.039Z,45.90
2018-07-01T22:12:44.018Z,45.90
2018-07-01T22:14:46.331Z,45.90
2018-07-01T22:16:48.633Z,46.10
2018-07-01T22:18:50.884Z,46.10
2018-07-01T22:20:52.868Z,46.00
2018-07-01T22:22:54.861Z,46.10
2018-07-01T22:24:57.108Z,46.20
2018-07-01T22:26:59.116Z,46.10
2018-07-01T22:29:01.089Z,46.20
2018-07-01T22:31:03.448Z,46.10
2018-07-01T22:33:05.442Z,46.20
2018-07-01T22:35:07.414Z,46.10
2018-07-01T22:37:09.437Z,46.10
2018-07-01T22:39:11.390Z,46.10
2018-07-01T22:41:13.356Z,46.90
2018-07-01T22:43:15.324Z,46.20
2018-07-01T22:45:17.295Z,46.20
2018-07-01T22:47:19.260Z,46.30
2018-07-01T22:49:21.229Z,46.10
2018-07-01T22:51:23.183Z,46.40
2018-07-01T22:53:25.210Z,46.20
2018-07-01T22:55:27.498Z,46.30
2018-07-01T22:57:29.476Z,46.40
2018-07-01T22:59:31.536Z,46.40
2018-07-01T23:01:33.504Z,46.40
2018-07-01T23:03:35.494Z,46.40
2018-07-01T23:05:37.481Z,46.30
2018-07-01T23:07:39.450Z,46.30
2018-07-01T23:09:41.694Z,46.60
2018-07-01T23:11:43.670Z,46.30
2018-07-01T23:13:45.630Z,46.30
2018-07-01T23:15:47.990Z,46.40
2018-07-01T23:17:49.950Z,46.30
2018-07-01T23:19:51.936Z,46.60
2018-07-01T23:21:53.916Z,46.40
2018-07-01T23:23:55.898Z,46.50
2018-07-01T23:25:57.876Z,46.40
2018-07-01T23:27:59.844Z,46.50
2018-07-01T23:30:01.817Z,46.30
2018-07-01T23:32:03.804Z,46.90
2018-07-01T23:34:05.764Z,47.30
2018-07-01T23:36:07.749Z,46.60
2018-07-01T23:38:10.056Z,46.50
2018-07-01T23:40:12.025Z,46.60
2018-07-01T23:42:14.002Z,46.50
2018-07-01T23:44:15.986Z,46.50
2018-07-01T23:46:17.976Z,46.50
2018-07-01T23:48:19.949Z,46.50
2018-07-01T23:50:21.927Z,46.50
2018-07-01T23:52:23.914Z,46.60
2018-07-01T23:54:25.882Z,46.60
2018-07-01T23:56:27.847Z,46.50
2018-07-01T23:58:30.179Z,46.60
